sensor_id;sensor_type;location;lat;lon;timestamp;temperature;humidity
15481;DHT22;7842;50.904;6.670;2022-08-02T00:02:20;18.50;99.90
15481;DHT22;7842;50.904;6.670;2022-08-02T00:04:46;18.50;99.90
15481;DHT22;7842;50.904;6.670;2022-08-02T00:07:12;18.40;99.90
15481;DHT22;7842;50.904;6.670;2022-08-02T00:09:38;19.50;99.90
15481;DHT22;7842;50.904;6.670;2022-08-02T00:12:03;18.40;99.90
15481;DHT22;7842;50.904;6.670;2022-08-02T00:14:29;18.40;99.90
15481;DHT22;7842;50.904;6.670;2022-08-02T00:16:55;18.30;99.90
15481;DHT22;7842;50.904;6.670;2022-08-02T00:19:20;18.30;99.90
15481;DHT22;7842;50.904;6.670;2022-08-02T00:21:46;18.10;99.90
15481;DHT22;7842;50.904;6.670;2022-08-02T00:24:12;18.00;99.90
15481;DHT22;7842;50.904;6.670;2022-08-02T00:26:37;18.00;99.90
15481;DHT22;7842;50.904;6.670;2022-08-02T00:29:03;18.00;99.90
15481;DHT22;7842;50.904;6.670;2022-08-02T00:31:29;17.90;99.90
15481;DHT22;7842;50.904;6.670;2022-08-02T00:33:54;17.70;99.90
15481;DHT22;7842;50.904;6.670;2022-08-02T00:36:20;18.60;99.90
15481;DHT22;7842;50.904;6.670;2022-08-02T00:38:46;17.50;99.90
15481;DHT22;7842;50.904;6.670;2022-08-02T00:41:18;17.30;99.90
15481;DHT22;7842;50.904;6.670;2022-08-02T00:43:44;17.30;99.90
15481;DHT22;7842;50.904;6.670;2022-08-02T00:46:12;17.90;99.90
15481;DHT22;7842;50.904;6.670;2022-08-02T00:48:38;17.30;99.90
15481;DHT22;7842;50.904;6.670;2022-08-02T00:51:04;17.20;99.90
15481;DHT22;7842;50.904;6.670;2022-08-02T00:53:30;17.20;99.90
15481;DHT22;7842;50.904;6.670;2022-08-02T00:55:55;18.10;99.90
15481;DHT22;7842;50.904;6.670;2022-08-02T00:58:21;17.40;99.90
15481;DHT22;7842;50.904;6.670;2022-08-02T01:00:47;17.50;99.90
15481;DHT22;7842;50.904;6.670;2022-08-02T01:03:13;17.60;99.90
15481;DHT22;7842;50.904;6.670;2022-08-02T01:05:39;17.60;99.90
15481;DHT22;7842;50.904;6.670;2022-08-02T01:08:04;17.30;99.90
15481;DHT22;7842;50.904;6.670;2022-08-02T01:10:30;17.20;99.90
15481;DHT22;7842;50.904;6.670;2022-08-02T01:12:56;17.30;99.90
15481;DHT22;7842;50.904;6.670;2022-08-02T01:15:21;17.40;99.90
15481;DHT22;7842;50.904;6.670;2022-08-02T01:18:01;17.50;99.90
15481;DHT22;7842;50.904;6.670;2022-08-02T01:21:05;17.50;99.90
15481;DHT22;7842;50.904;6.670;2022-08-02T01:26:47;17.00;99.90
15481;DHT22;7842;50.904;6.670;2022-08-02T01:29:21;17.00;99.90
15481;DHT22;7842;50.904;6.670;2022-08-02T01:39:44;17.10;99.90
15481;DHT22;7842;50.904;6.670;2022-08-02T01:42:11;17.00;99.90
15481;DHT22;7842;50.904;6.670;2022-08-02T01:44:40;16.90;99.90
15481;DHT22;7842;50.904;6.670;2022-08-02T01:47:14;16.70;99.90
15481;DHT22;7842;50.904;6.670;2022-08-02T01:49:45;16.60;99.90
15481;DHT22;7842;50.904;6.670;2022-08-02T01:52:12;16.60;99.90
15481;DHT22;7842;50.904;6.670;2022-08-02T01:55:04;16.50;99.90
15481;DHT22;7842;50.904;6.670;2022-08-02T01:57:35;17.60;99.90
15481;DHT22;7842;50.904;6.670;2022-08-02T02:00:03;16.50;99.90
15481;DHT22;7842;50.904;6.670;2022-08-02T02:02:31;16.40;99.90
15481;DHT22;7842;50.904;6.670;2022-08-02T02:04:58;16.30;99.90
15481;DHT22;7842;50.904;6.670;2022-08-02T02:07:25;16.30;99.90
15481;DHT22;7842;50.904;6.670;2022-08-02T02:09:53;16.20;99.90
15481;DHT22;7842;50.904;6.670;2022-08-02T02:12:21;16.20;99.90
15481;DHT22;7842;50.904;6.670;2022-08-02T02:14:49;16.10;99.90
15481;DHT22;7842;50.904;6.670;2022-08-02T02:17:16;16.10;99.90
15481;DHT22;7842;50.904;6.670;2022-08-02T02:19:43;16.10;99.90
15481;DHT22;7842;50.904;6.670;2022-08-02T02:22:10;17.10;99.90
15481;DHT22;7842;50.904;6.670;2022-08-02T02:24:36;16.10;99.90
15481;DHT22;7842;50.904;6.670;2022-08-02T02:27:03;15.90;99.90
15481;DHT22;7842;50.904;6.670;2022-08-02T02:29:32;15.90;99.90
15481;DHT22;7842;50.904;6.670;2022-08-02T02:31:59;15.90;99.90
15481;DHT22;7842;50.904;6.670;2022-08-02T02:34:32;15.90;99.90
15481;DHT22;7842;50.904;6.670;2022-08-02T02:37:03;15.90;99.90
15481;DHT22;7842;50.904;6.670;2022-08-02T02:39:30;16.50;99.90
15481;DHT22;7842;50.904;6.670;2022-08-02T02:42:00;15.80;99.90
15481;DHT22;7842;50.904;6.670;2022-08-02T02:44:28;15.70;99.90
15481;DHT22;7842;50.904;6.670;2022-08-02T02:46:55;15.70;99.90
15481;DHT22;7842;50.904;6.670;2022-08-02T02:49:22;15.70;99.90
15481;DHT22;7842;50.904;6.670;2022-08-02T02:51:49;16.50;99.90
15481;DHT22;7842;50.904;6.670;2022-08-02T02:54:17;15.60;99.90
15481;DHT22;7842;50.904;6.670;2022-08-02T02:56:43;15.60;99.90
15481;DHT22;7842;50.904;6.670;2022-08-02T02:59:10;16.50;99.90
15481;DHT22;7842;50.904;6.670;2022-08-02T03:01:38;15.70;99.90
15481;DHT22;7842;50.904;6.670;2022-08-02T03:04:06;15.70;99.90
15481;DHT22;7842;50.904;6.670;2022-08-02T03:06:32;15.80;99.90
15481;DHT22;7842;50.904;6.670;2022-08-02T03:08:59;17.10;99.90
15481;DHT22;7842;50.904;6.670;2022-08-02T03:11:25;17.00;99.90
15481;DHT22;7842;50.904;6.670;2022-08-02T03:14:06;15.50;99.90
15481;DHT22;7842;50.904;6.670;2022-08-02T03:16:32;15.50;99.90
15481;DHT22;7842;50.904;6.670;2022-08-02T03:19:01;16.70;99.90
15481;DHT22;7842;50.904;6.670;2022-08-02T03:21:27;15.50;99.90
15481;DHT22;7842;50.904;6.670;2022-08-02T03:23:53;15.60;99.90
15481;DHT22;7842;50.904;6.670;2022-08-02T03:26:19;15.30;99.90
15481;DHT22;7842;50.904;6.670;2022-08-02T03:28:45;15.20;99.90
15481;DHT22;7842;50.904;6.670;2022-08-02T03:31:11;15.70;99.90
15481;DHT22;7842;50.904;6.670;2022-08-02T03:33:38;16.30;99.90
15481;DHT22;7842;50.904;6.670;2022-08-02T03:36:07;15.20;99.90
15481;DHT22;7842;50.904;6.670;2022-08-02T03:38:35;15.20;99.90
15481;DHT22;7842;50.904;6.670;2022-08-02T03:41:03;15.30;99.90
15481;DHT22;7842;50.904;6.670;2022-08-02T03:43:29;15.20;99.90
15481;DHT22;7842;50.904;6.670;2022-08-02T03:45:56;15.80;99.90
15481;DHT22;7842;50.904;6.670;2022-08-02T03:48:22;15.10;99.90
15481;DHT22;7842;50.904;6.670;2022-08-02T03:50:49;15.00;99.90
15481;DHT22;7842;50.904;6.670;2022-08-02T03:53:16;15.20;99.90
15481;DHT22;7842;50.904;6.670;2022-08-02T03:55:43;15.10;99.90
15481;DHT22;7842;50.904;6.670;2022-08-02T03:58:16;15.00;99.90
15481;DHT22;7842;50.904;6.670;2022-08-02T04:00:41;15.60;99.90
15481;DHT22;7842;50.904;6.670;2022-08-02T04:03:07;15.00;99.90
15481;DHT22;7842;50.904;6.670;2022-08-02T04:05:32;15.00;99.90
15481;DHT22;7842;50.904;6.670;2022-08-02T04:07:58;15.00;99.90
15481;DHT22;7842;50.904;6.670;2022-08-02T04:10:24;15.10;99.90
15481;DHT22;7842;50.904;6.670;2022-08-02T04:12:49;15.00;99.90
15481;DHT22;7842;50.904;6.670;2022-08-02T04:15:15;15.10;99.90
15481;DHT22;7842;50.904;6.670;2022-08-02T04:17:47;15.10;99.90
15481;DHT22;7842;50.904;6.670;2022-08-02T04:20:18;15.10;99.90
15481;DHT22;7842;50.904;6.670;2022-08-02T04:25:33;15.00;99.90
15481;DHT22;7842;50.904;6.670;2022-08-02T04:28:00;15.20;99.90
15481;DHT22;7842;50.904;6.670;2022-08-02T04:30:27;15.00;99.90
15481;DHT22;7842;50.904;6.670;2022-08-02T04:32:53;15.30;99.90
15481;DHT22;7842;50.904;6.670;2022-08-02T04:35:19;15.50;99.90
15481;DHT22;7842;50.904;6.670;2022-08-02T04:37:45;15.90;99.90
15481;DHT22;7842;50.904;6.670;2022-08-02T04:40:11;16.20;99.90
15481;DHT22;7842;50.904;6.670;2022-08-02T04:42:38;16.20;99.90
15481;DHT22;7842;50.904;6.670;2022-08-02T04:45:05;16.20;99.90
15481;DHT22;7842;50.904;6.670;2022-08-02T04:47:31;16.00;99.90
15481;DHT22;7842;50.904;6.670;2022-08-02T04:49:57;15.90;99.90
15481;DHT22;7842;50.904;6.670;2022-08-02T04:52:23;15.90;99.90
15481;DHT22;7842;50.904;6.670;2022-08-02T04:54:48;16.00;99.90
15481;DHT22;7842;50.904;6.670;2022-08-02T05:02:58;17.40;99.90
15481;DHT22;7842;50.904;6.670;2022-08-02T05:05:25;17.90;99.90
15481;DHT22;7842;50.904;6.670;2022-08-02T05:07:51;18.50;99.90
15481;DHT22;7842;50.904;6.670;2022-08-02T05:10:17;19.00;99.90
15481;DHT22;7842;50.904;6.670;2022-08-02T05:12:42;19.60;99.90
15481;DHT22;7842;50.904;6.670;2022-08-02T05:15:09;20.50;99.90
15481;DHT22;7842;50.904;6.670;2022-08-02T05:17:35;21.10;99.90
15481;DHT22;7842;50.904;6.670;2022-08-02T05:20:01;21.60;99.90
15481;DHT22;7842;50.904;6.670;2022-08-02T05:22:26;21.40;99.90
15481;DHT22;7842;50.904;6.670;2022-08-02T05:24:52;21.60;99.90
15481;DHT22;7842;50.904;6.670;2022-08-02T05:27:18;21.40;99.90
15481;DHT22;7842;50.904;6.670;2022-08-02T05:29:43;21.60;99.90
15481;DHT22;7842;50.904;6.670;2022-08-02T05:32:09;21.70;99.90
15481;DHT22;7842;50.904;6.670;2022-08-02T05:34:34;22.30;99.90
15481;DHT22;7842;50.904;6.670;2022-08-02T05:37:00;22.50;99.90
15481;DHT22;7842;50.904;6.670;2022-08-02T05:39:26;22.50;99.90
15481;DHT22;7842;50.904;6.670;2022-08-02T05:41:51;22.90;99.90
15481;DHT22;7842;50.904;6.670;2022-08-02T05:44:17;23.50;99.90
15481;DHT22;7842;50.904;6.670;2022-08-02T05:46:42;23.40;99.90
15481;DHT22;7842;50.904;6.670;2022-08-02T05:49:08;23.10;99.90
15481;DHT22;7842;50.904;6.670;2022-08-02T05:51:37;23.40;99.90
15481;DHT22;7842;50.904;6.670;2022-08-02T05:54:11;23.40;99.90
15481;DHT22;7842;50.904;6.670;2022-08-02T05:56:48;23.70;99.90
15481;DHT22;7842;50.904;6.670;2022-08-02T05:59:31;23.80;99.90
15481;DHT22;7842;50.904;6.670;2022-08-02T06:02:08;24.20;99.90
15481;DHT22;7842;50.904;6.670;2022-08-02T06:07:36;24.60;99.90
15481;DHT22;7842;50.904;6.670;2022-08-02T06:10:03;24.20;99.90
15481;DHT22;7842;50.904;6.670;2022-08-02T06:12:31;24.50;99.90
15481;DHT22;7842;50.904;6.670;2022-08-02T06:14:58;24.30;99.90
15481;DHT22;7842;50.904;6.670;2022-08-02T06:17:25;24.20;99.90
15481;DHT22;7842;50.904;6.670;2022-08-02T06:19:55;24.50;99.90
15481;DHT22;7842;50.904;6.670;2022-08-02T06:22:26;24.80;99.90
15481;DHT22;7842;50.904;6.670;2022-08-02T06:24:53;24.20;99.90
15481;DHT22;7842;50.904;6.670;2022-08-02T06:27:19;24.20;99.90
15481;DHT22;7842;50.904;6.670;2022-08-02T06:29:48;24.30;99.90
15481;DHT22;7842;50.904;6.670;2022-08-02T06:32:22;24.00;99.90
15481;DHT22;7842;50.904;6.670;2022-08-02T06:34:49;23.80;99.90
15481;DHT22;7842;50.904;6.670;2022-08-02T06:37:39;23.50;99.90
15481;DHT22;7842;50.904;6.670;2022-08-02T06:42:51;23.90;99.90
15481;DHT22;7842;50.904;6.670;2022-08-02T06:45:19;24.30;99.90
15481;DHT22;7842;50.904;6.670;2022-08-02T06:47:45;24.40;99.90
15481;DHT22;7842;50.904;6.670;2022-08-02T06:50:10;24.60;99.90
15481;DHT22;7842;50.904;6.670;2022-08-02T06:52:37;25.40;99.90
15481;DHT22;7842;50.904;6.670;2022-08-02T06:55:03;25.70;99.90
15481;DHT22;7842;50.904;6.670;2022-08-02T06:57:30;25.40;99.90
15481;DHT22;7842;50.904;6.670;2022-08-02T06:59:56;25.60;99.90
15481;DHT22;7842;50.904;6.670;2022-08-02T07:02:22;25.40;99.90
15481;DHT22;7842;50.904;6.670;2022-08-02T07:04:49;25.30;99.90
15481;DHT22;7842;50.904;6.670;2022-08-02T07:07:14;24.90;99.90
15481;DHT22;7842;50.904;6.670;2022-08-02T07:09:40;24.80;99.90
15481;DHT22;7842;50.904;6.670;2022-08-02T07:12:06;25.10;99.90
15481;DHT22;7842;50.904;6.670;2022-08-02T07:14:31;25.20;99.90
15481;DHT22;7842;50.904;6.670;2022-08-02T07:16:57;24.90;99.90
15481;DHT22;7842;50.904;6.670;2022-08-02T07:19:23;24.80;99.90
15481;DHT22;7842;50.904;6.670;2022-08-02T07:21:48;24.50;99.90
15481;DHT22;7842;50.904;6.670;2022-08-02T07:24:14;24.40;99.90
15481;DHT22;7842;50.904;6.670;2022-08-02T07:26:39;24.30;99.90
15481;DHT22;7842;50.904;6.670;2022-08-02T07:29:05;24.30;99.90
15481;DHT22;7842;50.904;6.670;2022-08-02T07:31:31;24.20;99.90
15481;DHT22;7842;50.904;6.670;2022-08-02T07:33:56;24.40;99.90
15481;DHT22;7842;50.904;6.670;2022-08-02T07:36:22;24.60;99.90
15481;DHT22;7842;50.904;6.670;2022-08-02T07:38:47;24.50;99.90
15481;DHT22;7842;50.904;6.670;2022-08-02T07:41:14;24.60;99.90
15481;DHT22;7842;50.904;6.670;2022-08-02T07:43:39;24.80;99.90
15481;DHT22;7842;50.904;6.670;2022-08-02T07:46:05;25.00;99.90
15481;DHT22;7842;50.904;6.670;2022-08-02T07:48:31;25.20;99.90
15481;DHT22;7842;50.904;6.670;2022-08-02T07:50:56;25.10;99.90
15481;DHT22;7842;50.904;6.670;2022-08-02T07:53:22;25.20;99.90
15481;DHT22;7842;50.904;6.670;2022-08-02T07:55:48;25.20;99.90
15481;DHT22;7842;50.904;6.670;2022-08-02T07:58:13;25.40;99.90
15481;DHT22;7842;50.904;6.670;2022-08-02T08:00:41;25.40;99.90
15481;DHT22;7842;50.904;6.670;2022-08-02T08:05:42;25.60;99.90
15481;DHT22;7842;50.904;6.670;2022-08-02T08:08:08;25.70;99.90
15481;DHT22;7842;50.904;6.670;2022-08-02T08:10:34;25.80;99.90
15481;DHT22;7842;50.904;6.670;2022-08-02T08:13:00;26.00;99.90
15481;DHT22;7842;50.904;6.670;2022-08-02T08:15:25;26.20;99.90
15481;DHT22;7842;50.904;6.670;2022-08-02T08:17:51;26.30;99.90
15481;DHT22;7842;50.904;6.670;2022-08-02T08:20:16;26.20;99.90
15481;DHT22;7842;50.904;6.670;2022-08-02T08:22:42;26.40;99.90
15481;DHT22;7842;50.904;6.670;2022-08-02T08:25:08;26.60;99.90
15481;DHT22;7842;50.904;6.670;2022-08-02T08:27:34;26.70;99.90
15481;DHT22;7842;50.904;6.670;2022-08-02T08:30:00;26.80;99.90
15481;DHT22;7842;50.904;6.670;2022-08-02T08:32:26;26.70;99.90
15481;DHT22;7842;50.904;6.670;2022-08-02T08:34:52;26.60;99.90
15481;DHT22;7842;50.904;6.670;2022-08-02T08:37:17;26.80;99.90
15481;DHT22;7842;50.904;6.670;2022-08-02T08:39:44;26.70;99.90
15481;DHT22;7842;50.904;6.670;2022-08-02T08:42:10;27.00;99.90
15481;DHT22;7842;50.904;6.670;2022-08-02T08:44:36;27.00;99.90
15481;DHT22;7842;50.904;6.670;2022-08-02T08:47:03;27.20;99.90
15481;DHT22;7842;50.904;6.670;2022-08-02T08:49:39;27.10;99.90
15481;DHT22;7842;50.904;6.670;2022-08-02T08:52:05;27.00;99.90
15481;DHT22;7842;50.904;6.670;2022-08-02T08:54:32;27.10;99.90
15481;DHT22;7842;50.904;6.670;2022-08-02T08:56:58;27.20;99.90
15481;DHT22;7842;50.904;6.670;2022-08-02T08:59:25;27.30;99.90
15481;DHT22;7842;50.904;6.670;2022-08-02T09:01:51;27.30;99.90
15481;DHT22;7842;50.904;6.670;2022-08-02T09:04:17;27.10;99.90
15481;DHT22;7842;50.904;6.670;2022-08-02T09:06:43;27.00;99.90
15481;DHT22;7842;50.904;6.670;2022-08-02T09:09:09;26.70;99.90
15481;DHT22;7842;50.904;6.670;2022-08-02T09:11:35;26.30;99.90
15481;DHT22;7842;50.904;6.670;2022-08-02T09:14:02;25.90;99.90
15481;DHT22;7842;50.904;6.670;2022-08-02T09:16:38;25.80;99.90
15481;DHT22;7842;50.904;6.670;2022-08-02T09:19:22;25.60;99.90
15481;DHT22;7842;50.904;6.670;2022-08-02T09:21:50;25.40;99.90
15481;DHT22;7842;50.904;6.670;2022-08-02T09:24:21;25.40;99.90
15481;DHT22;7842;50.904;6.670;2022-08-02T09:26:49;25.20;99.90
15481;DHT22;7842;50.904;6.670;2022-08-02T09:29:16;25.40;99.90
15481;DHT22;7842;50.904;6.670;2022-08-02T09:31:43;25.70;99.90
15481;DHT22;7842;50.904;6.670;2022-08-02T09:34:09;25.60;99.90
15481;DHT22;7842;50.904;6.670;2022-08-02T09:36:40;25.50;99.90
15481;DHT22;7842;50.904;6.670;2022-08-02T09:39:08;25.60;99.90
15481;DHT22;7842;50.904;6.670;2022-08-02T09:41:36;25.80;99.90
15481;DHT22;7842;50.904;6.670;2022-08-02T09:44:04;26.30;99.90
15481;DHT22;7842;50.904;6.670;2022-08-02T09:46:35;26.40;99.90
15481;DHT22;7842;50.904;6.670;2022-08-02T09:49:08;26.70;99.90
15481;DHT22;7842;50.904;6.670;2022-08-02T09:51:39;27.00;99.90
15481;DHT22;7842;50.904;6.670;2022-08-02T09:54:09;27.10;99.90
15481;DHT22;7842;50.904;6.670;2022-08-02T09:56:50;27.10;99.90
15481;DHT22;7842;50.904;6.670;2022-08-02T09:59:17;27.00;99.90
15481;DHT22;7842;50.904;6.670;2022-08-02T10:01:45;27.20;99.90
15481;DHT22;7842;50.904;6.670;2022-08-02T10:04:12;27.10;99.90
15481;DHT22;7842;50.904;6.670;2022-08-02T10:06:39;27.10;99.90
15481;DHT22;7842;50.904;6.670;2022-08-02T10:28:52;27.20;99.90
15481;DHT22;7842;50.904;6.670;2022-08-02T10:33:48;27.00;99.90
15481;DHT22;7842;50.904;6.670;2022-08-02T10:49:11;27.40;99.90
15481;DHT22;7842;50.904;6.670;2022-08-02T10:57:02;27.50;99.90
15481;DHT22;7842;50.904;6.670;2022-08-02T10:59:34;27.40;99.90
15481;DHT22;7842;50.904;6.670;2022-08-02T11:02:02;27.30;99.90
15481;DHT22;7842;50.904;6.670;2022-08-02T11:04:31;27.00;99.90
15481;DHT22;7842;50.904;6.670;2022-08-02T11:09:36;27.10;99.90
15481;DHT22;7842;50.904;6.670;2022-08-02T11:12:07;27.40;99.90
15481;DHT22;7842;50.904;6.670;2022-08-02T11:14:35;27.30;99.90
15481;DHT22;7842;50.904;6.670;2022-08-02T11:17:06;27.30;99.90
15481;DHT22;7842;50.904;6.670;2022-08-02T11:19:32;27.50;99.90
15481;DHT22;7842;50.904;6.670;2022-08-02T11:22:09;27.80;99.90
15481;DHT22;7842;50.904;6.670;2022-08-02T11:24:36;27.90;99.90
15481;DHT22;7842;50.904;6.670;2022-08-02T11:27:05;27.80;99.90
15481;DHT22;7842;50.904;6.670;2022-08-02T11:29:32;27.80;99.90
15481;DHT22;7842;50.904;6.670;2022-08-02T11:31:58;28.00;99.90
15481;DHT22;7842;50.904;6.670;2022-08-02T11:34:25;28.10;99.90
15481;DHT22;7842;50.904;6.670;2022-08-02T11:36:51;28.10;99.90
15481;DHT22;7842;50.904;6.670;2022-08-02T11:41:51;28.00;99.90
15481;DHT22;7842;50.904;6.670;2022-08-02T11:44:18;27.90;99.90
15481;DHT22;7842;50.904;6.670;2022-08-02T11:46:43;27.90;99.90
15481;DHT22;7842;50.904;6.670;2022-08-02T11:49:17;27.90;99.90
15481;DHT22;7842;50.904;6.670;2022-08-02T11:52:00;27.80;99.90
15481;DHT22;7842;50.904;6.670;2022-08-02T11:54:34;27.90;99.90
15481;DHT22;7842;50.904;6.670;2022-08-02T11:57:20;28.00;99.90
15481;DHT22;7842;50.904;6.670;2022-08-02T11:59:48;28.20;99.90
15481;DHT22;7842;50.904;6.670;2022-08-02T12:02:15;28.20;99.90
15481;DHT22;7842;50.904;6.670;2022-08-02T12:04:41;28.10;99.90
15481;DHT22;7842;50.904;6.670;2022-08-02T12:07:08;28.00;99.90
15481;DHT22;7842;50.904;6.670;2022-08-02T12:09:35;28.10;99.90
15481;DHT22;7842;50.904;6.670;2022-08-02T12:22:26;28.40;99.90
15481;DHT22;7842;50.904;6.670;2022-08-02T12:35:19;28.50;99.90
15481;DHT22;7842;50.904;6.670;2022-08-02T12:40:28;28.70;99.90
15481;DHT22;7842;50.904;6.670;2022-08-02T12:43:04;28.80;99.90
15481;DHT22;7842;50.904;6.670;2022-08-02T12:48:14;28.90;99.90
15481;DHT22;7842;50.904;6.670;2022-08-02T12:55:35;29.00;99.90
15481;DHT22;7842;50.904;6.670;2022-08-02T15:02:29;30.40;99.90
15481;DHT22;7842;50.904;6.670;2022-08-02T15:04:55;30.40;99.90
15481;DHT22;7842;50.904;6.670;2022-08-02T15:07:20;30.30;99.90
15481;DHT22;7842;50.904;6.670;2022-08-02T15:09:46;30.30;99.90
15481;DHT22;7842;50.904;6.670;2022-08-02T15:12:12;30.30;99.90
15481;DHT22;7842;50.904;6.670;2022-08-02T15:14:39;30.20;99.90
15481;DHT22;7842;50.904;6.670;2022-08-02T15:17:05;30.30;99.90
15481;DHT22;7842;50.904;6.670;2022-08-02T15:19:31;30.20;99.90
15481;DHT22;7842;50.904;6.670;2022-08-02T15:24:24;30.30;99.90
15481;DHT22;7842;50.904;6.670;2022-08-02T15:26:50;30.20;99.90
15481;DHT22;7842;50.904;6.670;2022-08-02T15:29:17;30.30;99.90
15481;DHT22;7842;50.904;6.670;2022-08-02T15:31:42;30.30;99.90
15481;DHT22;7842;50.904;6.670;2022-08-02T15:34:08;30.40;99.90
15481;DHT22;7842;50.904;6.670;2022-08-02T15:36:34;30.50;99.90
15481;DHT22;7842;50.904;6.670;2022-08-02T16:30:25;30.70;99.90
15481;DHT22;7842;50.904;6.670;2022-08-02T16:52:19;30.40;99.90
15481;DHT22;7842;50.904;6.670;2022-08-02T16:57:11;30.20;99.90
15481;DHT22;7842;50.904;6.670;2022-08-02T16:59:37;30.30;99.90
15481;DHT22;7842;50.904;6.670;2022-08-02T17:41:03;29.80;99.90
15481;DHT22;7842;50.904;6.670;2022-08-02T17:58:07;29.60;99.90
15481;DHT22;7842;50.904;6.670;2022-08-02T18:00:34;29.50;99.90
15481;DHT22;7842;50.904;6.670;2022-08-02T18:03:02;29.40;99.90
15481;DHT22;7842;50.904;6.670;2022-08-02T18:05:28;29.40;99.90
15481;DHT22;7842;50.904;6.670;2022-08-02T18:10:19;29.20;99.90
15481;DHT22;7842;50.904;6.670;2022-08-02T18:12:45;29.10;99.90
15481;DHT22;7842;50.904;6.670;2022-08-02T18:20:03;28.90;99.90
15481;DHT22;7842;50.904;6.670;2022-08-02T19:11:15;27.50;99.90
15481;DHT22;7842;50.904;6.670;2022-08-02T19:42:58;26.70;99.90
15481;DHT22;7842;50.904;6.670;2022-08-02T19:45:23;26.60;99.90
15481;DHT22;7842;50.904;6.670;2022-08-02T19:52:45;26.50;99.90
15481;DHT22;7842;50.904;6.670;2022-08-02T20:00:08;26.30;99.90
15481;DHT22;7842;50.904;6.670;2022-08-02T20:02:35;26.30;99.90
15481;DHT22;7842;50.904;6.670;2022-08-02T20:05:02;26.20;99.90
15481;DHT22;7842;50.904;6.670;2022-08-02T20:07:28;26.20;99.90
15481;DHT22;7842;50.904;6.670;2022-08-02T20:09:54;26.20;99.90
15481;DHT22;7842;50.904;6.670;2022-08-02T20:12:20;26.10;99.90
15481;DHT22;7842;50.904;6.670;2022-08-02T20:14:45;26.00;99.90
15481;DHT22;7842;50.904;6.670;2022-08-02T20:17:11;26.00;99.90
15481;DHT22;7842;50.904;6.670;2022-08-02T20:19:38;25.90;99.90
15481;DHT22;7842;50.904;6.670;2022-08-02T20:22:04;26.10;99.90
15481;DHT22;7842;50.904;6.670;2022-08-02T20:24:29;24.50;99.90
15481;DHT22;7842;50.904;6.670;2022-08-02T20:26:55;25.60;99.90
15481;DHT22;7842;50.904;6.670;2022-08-02T20:29:21;25.60;99.90
15481;DHT22;7842;50.904;6.670;2022-08-02T20:31:47;25.60;99.90
15481;DHT22;7842;50.904;6.670;2022-08-02T20:34:13;25.60;99.90
15481;DHT22;7842;50.904;6.670;2022-08-02T20:36:39;25.60;99.90
15481;DHT22;7842;50.904;6.670;2022-08-02T20:39:04;25.50;99.90
15481;DHT22;7842;50.904;6.670;2022-08-02T20:41:30;25.50;99.90
15481;DHT22;7842;50.904;6.670;2022-08-02T20:43:57;25.40;99.90
15481;DHT22;7842;50.904;6.670;2022-08-02T20:46:23;25.40;99.90
15481;DHT22;7842;50.904;6.670;2022-08-02T20:48:48;25.40;99.90
15481;DHT22;7842;50.904;6.670;2022-08-02T20:51:16;25.40;99.90
15481;DHT22;7842;50.904;6.670;2022-08-02T20:53:42;25.30;99.90
15481;DHT22;7842;50.904;6.670;2022-08-02T20:56:07;25.20;99.90
15481;DHT22;7842;50.904;6.670;2022-08-02T20:58:33;25.20;99.90
15481;DHT22;7842;50.904;6.670;2022-08-02T21:00:59;25.10;99.90
15481;DHT22;7842;50.904;6.670;2022-08-02T21:03:24;25.10;99.90
15481;DHT22;7842;50.904;6.670;2022-08-02T21:05:50;25.00;99.90
15481;DHT22;7842;50.904;6.670;2022-08-02T21:08:16;25.00;99.90
15481;DHT22;7842;50.904;6.670;2022-08-02T21:10:45;24.90;99.90
15481;DHT22;7842;50.904;6.670;2022-08-02T21:13:12;24.90;99.90
15481;DHT22;7842;50.904;6.670;2022-08-02T21:15:38;24.80;99.90
15481;DHT22;7842;50.904;6.670;2022-08-02T21:18:03;24.80;99.90
15481;DHT22;7842;50.904;6.670;2022-08-02T21:20:29;24.80;99.90
15481;DHT22;7842;50.904;6.670;2022-08-02T21:22:55;24.70;99.90
15481;DHT22;7842;50.904;6.670;2022-08-02T21:25:21;24.60;99.90
15481;DHT22;7842;50.904;6.670;2022-08-02T21:27:47;24.60;99.90
15481;DHT22;7842;50.904;6.670;2022-08-02T21:30:13;24.60;99.90
15481;DHT22;7842;50.904;6.670;2022-08-02T21:32:39;24.60;99.90
15481;DHT22;7842;50.904;6.670;2022-08-02T21:35:05;24.60;99.90
15481;DHT22;7842;50.904;6.670;2022-08-02T21:37:31;24.50;99.90
15481;DHT22;7842;50.904;6.670;2022-08-02T21:39:57;24.50;99.90
15481;DHT22;7842;50.904;6.670;2022-08-02T21:42:22;24.40;99.90
15481;DHT22;7842;50.904;6.670;2022-08-02T21:44:48;24.40;99.90
15481;DHT22;7842;50.904;6.670;2022-08-02T21:47:14;24.30;99.90
15481;DHT22;7842;50.904;6.670;2022-08-02T21:49:50;24.30;99.90
15481;DHT22;7842;50.904;6.670;2022-08-02T21:52:17;24.20;99.90
15481;DHT22;7842;50.904;6.670;2022-08-02T21:54:43;24.20;99.90
15481;DHT22;7842;50.904;6.670;2022-08-02T21:57:09;24.20;99.90
15481;DHT22;7842;50.904;6.670;2022-08-02T21:59:35;24.10;99.90
15481;DHT22;7842;50.904;6.670;2022-08-02T22:02:00;24.00;99.90
15481;DHT22;7842;50.904;6.670;2022-08-02T22:04:26;24.00;99.90
15481;DHT22;7842;50.904;6.670;2022-08-02T22:06:53;24.00;99.90
15481;DHT22;7842;50.904;6.670;2022-08-02T22:11:44;23.90;99.90
15481;DHT22;7842;50.904;6.670;2022-08-02T22:14:10;25.30;99.90
15481;DHT22;7842;50.904;6.670;2022-08-02T22:16:35;26.00;99.90
15481;DHT22;7842;50.904;6.670;2022-08-02T22:19:02;23.70;99.90
15481;DHT22;7842;50.904;6.670;2022-08-02T22:21:27;23.60;99.90
15481;DHT22;7842;50.904;6.670;2022-08-02T22:23:53;23.60;99.90
15481;DHT22;7842;50.904;6.670;2022-08-02T22:26:18;23.50;99.90
15481;DHT22;7842;50.904;6.670;2022-08-02T22:28:44;23.50;99.90
15481;DHT22;7842;50.904;6.670;2022-08-02T22:31:12;23.50;99.90
15481;DHT22;7842;50.904;6.670;2022-08-02T22:33:38;23.30;99.90
15481;DHT22;7842;50.904;6.670;2022-08-02T22:36:22;22.90;99.90
15481;DHT22;7842;50.904;6.670;2022-08-02T22:38:48;22.80;99.90
15481;DHT22;7842;50.904;6.670;2022-08-02T22:41:14;22.70;99.90
15481;DHT22;7842;50.904;6.670;2022-08-02T22:46:08;22.70;99.90
15481;DHT22;7842;50.904;6.670;2022-08-02T22:48:33;22.70;99.90
15481;DHT22;7842;50.904;6.670;2022-08-02T22:50:59;22.70;99.90
15481;DHT22;7842;50.904;6.670;2022-08-02T22:53:24;22.60;99.90
15481;DHT22;7842;50.904;6.670;2022-08-02T22:55:50;22.50;99.90
15481;DHT22;7842;50.904;6.670;2022-08-02T22:58:15;23.30;99.90
15481;DHT22;7842;50.904;6.670;2022-08-02T23:00:41;22.40;99.90
15481;DHT22;7842;50.904;6.670;2022-08-02T23:03:07;22.40;99.90
15481;DHT22;7842;50.904;6.670;2022-08-02T23:05:33;23.40;99.90
15481;DHT22;7842;50.904;6.670;2022-08-02T23:07:58;22.20;99.90
15481;DHT22;7842;50.904;6.670;2022-08-02T23:10:24;22.20;99.90
15481;DHT22;7842;50.904;6.670;2022-08-02T23:12:50;23.00;99.90
15481;DHT22;7842;50.904;6.670;2022-08-02T23:15:16;23.70;99.90
15481;DHT22;7842;50.904;6.670;2022-08-02T23:17:41;21.80;99.90
15481;DHT22;7842;50.904;6.670;2022-08-02T23:20:25;21.80;99.90
15481;DHT22;7842;50.904;6.670;2022-08-02T23:22:51;21.60;99.90
15481;DHT22;7842;50.904;6.670;2022-08-02T23:25:17;21.60;99.90